sensor_id;sensor_type;location;lat;lon;timestamp;temperature;humidity
25024;DHT22;13033;50.936;5.334;2022-12-26T00:02:14;12.50;99.90
25024;DHT22;13033;50.936;5.334;2022-12-26T00:04:39;12.50;99.90
25024;DHT22;13033;50.936;5.334;2022-12-26T00:07:05;12.60;99.90
25024;DHT22;13033;50.936;5.334;2022-12-26T00:09:32;12.60;99.90
25024;DHT22;13033;50.936;5.334;2022-12-26T00:11:57;12.50;99.90
25024;DHT22;13033;50.936;5.334;2022-12-26T00:14:23;12.50;99.90
25024;DHT22;13033;50.936;5.334;2022-12-26T00:16:49;12.50;99.90
25024;DHT22;13033;50.936;5.334;2022-12-26T00:19:14;12.40;99.90
25024;DHT22;13033;50.936;5.334;2022-12-26T00:21:40;12.30;99.90
25024;DHT22;13033;50.936;5.334;2022-12-26T00:24:07;12.30;99.90
25024;DHT22;13033;50.936;5.334;2022-12-26T00:26:33;12.40;99.90
25024;DHT22;13033;50.936;5.334;2022-12-26T00:29:00;12.30;99.90
25024;DHT22;13033;50.936;5.334;2022-12-26T00:31:29;12.30;99.90
25024;DHT22;13033;50.936;5.334;2022-12-26T00:33:56;12.30;99.90
25024;DHT22;13033;50.936;5.334;2022-12-26T00:36:25;12.40;99.90
25024;DHT22;13033;50.936;5.334;2022-12-26T00:38:52;12.30;99.90
25024;DHT22;13033;50.936;5.334;2022-12-26T00:41:19;12.20;99.90
25024;DHT22;13033;50.936;5.334;2022-12-26T00:43:45;12.10;99.90
25024;DHT22;13033;50.936;5.334;2022-12-26T00:46:12;12.10;99.90
25024;DHT22;13033;50.936;5.334;2022-12-26T00:48:37;12.00;99.90
25024;DHT22;13033;50.936;5.334;2022-12-26T00:51:04;12.10;99.90
25024;DHT22;13033;50.936;5.334;2022-12-26T00:53:29;12.20;99.90
25024;DHT22;13033;50.936;5.334;2022-12-26T00:55:55;12.20;99.90
25024;DHT22;13033;50.936;5.334;2022-12-26T00:58:22;12.20;99.90
25024;DHT22;13033;50.936;5.334;2022-12-26T01:00:48;12.10;99.90
25024;DHT22;13033;50.936;5.334;2022-12-26T01:03:15;12.10;99.90
25024;DHT22;13033;50.936;5.334;2022-12-26T01:05:43;12.10;99.90
25024;DHT22;13033;50.936;5.334;2022-12-26T01:08:09;12.20;99.90
25024;DHT22;13033;50.936;5.334;2022-12-26T01:10:35;12.20;99.90
25024;DHT22;13033;50.936;5.334;2022-12-26T01:13:01;12.10;99.90
25024;DHT22;13033;50.936;5.334;2022-12-26T01:15:26;12.00;99.90
25024;DHT22;13033;50.936;5.334;2022-12-26T01:17:52;12.10;99.90
25024;DHT22;13033;50.936;5.334;2022-12-26T01:20:18;12.10;99.90
25024;DHT22;13033;50.936;5.334;2022-12-26T01:22:43;12.10;99.90
25024;DHT22;13033;50.936;5.334;2022-12-26T01:25:10;12.10;99.90
25024;DHT22;13033;50.936;5.334;2022-12-26T01:27:36;12.10;99.90
25024;DHT22;13033;50.936;5.334;2022-12-26T01:30:02;12.10;99.90
25024;DHT22;13033;50.936;5.334;2022-12-26T01:32:28;12.00;99.90
25024;DHT22;13033;50.936;5.334;2022-12-26T01:34:54;12.10;99.90
25024;DHT22;13033;50.936;5.334;2022-12-26T01:37:21;12.00;99.90
25024;DHT22;13033;50.936;5.334;2022-12-26T01:39:51;12.10;99.90
25024;DHT22;13033;50.936;5.334;2022-12-26T01:42:19;12.10;99.90
25024;DHT22;13033;50.936;5.334;2022-12-26T01:47:57;12.20;99.90
25024;DHT22;13033;50.936;5.334;2022-12-26T01:50:43;12.20;99.90
25024;DHT22;13033;50.936;5.334;2022-12-26T01:55:42;12.00;99.90
25024;DHT22;13033;50.936;5.334;2022-12-26T01:58:16;11.90;99.90
25024;DHT22;13033;50.936;5.334;2022-12-26T02:00:43;11.90;99.90
25024;DHT22;13033;50.936;5.334;2022-12-26T02:03:09;11.90;99.90
25024;DHT22;13033;50.936;5.334;2022-12-26T02:05:56;11.90;99.90
25024;DHT22;13033;50.936;5.334;2022-12-26T02:08:27;11.80;99.90
25024;DHT22;13033;50.936;5.334;2022-12-26T02:11:17;11.80;99.90
25024;DHT22;13033;50.936;5.334;2022-12-26T02:13:43;11.80;99.90
25024;DHT22;13033;50.936;5.334;2022-12-26T02:16:12;11.70;99.90
25024;DHT22;13033;50.936;5.334;2022-12-26T02:18:39;11.60;99.90
25024;DHT22;13033;50.936;5.334;2022-12-26T02:30:05;11.80;99.90
25024;DHT22;13033;50.936;5.334;2022-12-26T02:37:51;11.50;99.90
25024;DHT22;13033;50.936;5.334;2022-12-26T02:43:00;11.40;99.90
25024;DHT22;13033;50.936;5.334;2022-12-26T02:45:29;11.50;99.90
25024;DHT22;13033;50.936;5.334;2022-12-26T02:51:16;11.50;99.90
25024;DHT22;13033;50.936;5.334;2022-12-26T02:57:11;11.60;99.90
25024;DHT22;13033;50.936;5.334;2022-12-26T03:02:54;11.60;99.90
25024;DHT22;13033;50.936;5.334;2022-12-26T03:06:02;11.50;99.90
25024;DHT22;13033;50.936;5.334;2022-12-26T03:09:03;11.50;99.90
25024;DHT22;13033;50.936;5.334;2022-12-26T03:11:51;11.50;99.90
25024;DHT22;13033;50.936;5.334;2022-12-26T03:14:47;11.30;99.90
25024;DHT22;13033;50.936;5.334;2022-12-26T03:17:28;11.50;99.90
25024;DHT22;13033;50.936;5.334;2022-12-26T03:20:05;11.50;99.90
25024;DHT22;13033;50.936;5.334;2022-12-26T03:22:42;11.50;99.90
25024;DHT22;13033;50.936;5.334;2022-12-26T03:25:14;11.50;99.90
25024;DHT22;13033;50.936;5.334;2022-12-26T03:28:00;11.40;99.90
25024;DHT22;13033;50.936;5.334;2022-12-26T03:30:26;11.30;99.90
25024;DHT22;13033;50.936;5.334;2022-12-26T03:33:10;11.50;99.90
25024;DHT22;13033;50.936;5.334;2022-12-26T03:35:55;11.60;99.90
25024;DHT22;13033;50.936;5.334;2022-12-26T03:38:26;11.50;99.90
25024;DHT22;13033;50.936;5.334;2022-12-26T03:41:05;11.40;99.90
25024;DHT22;13033;50.936;5.334;2022-12-26T03:47:12;11.40;99.90
25024;DHT22;13033;50.936;5.334;2022-12-26T03:50:06;11.30;99.90
25024;DHT22;13033;50.936;5.334;2022-12-26T03:53:07;11.30;99.90
25024;DHT22;13033;50.936;5.334;2022-12-26T03:55:58;11.40;99.90
25024;DHT22;13033;50.936;5.334;2022-12-26T03:58:52;11.30;99.90
25024;DHT22;13033;50.936;5.334;2022-12-26T04:01:39;11.30;99.90
25024;DHT22;13033;50.936;5.334;2022-12-26T04:04:26;11.20;99.90
25024;DHT22;13033;50.936;5.334;2022-12-26T04:07:20;11.20;99.90
25024;DHT22;13033;50.936;5.334;2022-12-26T04:10:10;11.30;99.90
25024;DHT22;13033;50.936;5.334;2022-12-26T04:12:56;11.30;99.90
25024;DHT22;13033;50.936;5.334;2022-12-26T04:15:55;11.20;99.90
25024;DHT22;13033;50.936;5.334;2022-12-26T04:18:46;11.20;99.90
25024;DHT22;13033;50.936;5.334;2022-12-26T04:24:48;11.40;99.90
25024;DHT22;13033;50.936;5.334;2022-12-26T04:27:33;11.40;99.90
25024;DHT22;13033;50.936;5.334;2022-12-26T04:30:18;11.30;99.90
25024;DHT22;13033;50.936;5.334;2022-12-26T04:33:14;11.30;99.90
25024;DHT22;13033;50.936;5.334;2022-12-26T04:36:07;11.30;99.90
25024;DHT22;13033;50.936;5.334;2022-12-26T04:38:57;11.40;99.90
25024;DHT22;13033;50.936;5.334;2022-12-26T04:41:42;11.50;99.90
25024;DHT22;13033;50.936;5.334;2022-12-26T04:44:28;11.50;99.90
25024;DHT22;13033;50.936;5.334;2022-12-26T04:46:55;11.50;99.90
25024;DHT22;13033;50.936;5.334;2022-12-26T04:49:21;11.50;99.90
25024;DHT22;13033;50.936;5.334;2022-12-26T04:52:11;11.40;99.90
25024;DHT22;13033;50.936;5.334;2022-12-26T04:54:37;11.60;99.90
25024;DHT22;13033;50.936;5.334;2022-12-26T04:57:04;11.60;99.90
25024;DHT22;13033;50.936;5.334;2022-12-26T04:59:29;11.60;99.90
25024;DHT22;13033;50.936;5.334;2022-12-26T05:01:55;11.50;99.90
25024;DHT22;13033;50.936;5.334;2022-12-26T05:04:39;11.50;99.90
25024;DHT22;13033;50.936;5.334;2022-12-26T05:07:27;11.50;99.90
25024;DHT22;13033;50.936;5.334;2022-12-26T05:10:24;11.40;99.90
25024;DHT22;13033;50.936;5.334;2022-12-26T05:12:51;11.40;99.90
25024;DHT22;13033;50.936;5.334;2022-12-26T05:15:17;11.30;99.90
25024;DHT22;13033;50.936;5.334;2022-12-26T05:17:43;11.40;99.90
25024;DHT22;13033;50.936;5.334;2022-12-26T05:20:27;11.50;99.90
25024;DHT22;13033;50.936;5.334;2022-12-26T05:23:30;11.50;99.90
25024;DHT22;13033;50.936;5.334;2022-12-26T05:26:20;11.40;99.90
25024;DHT22;13033;50.936;5.334;2022-12-26T05:29:05;11.50;99.90
25024;DHT22;13033;50.936;5.334;2022-12-26T05:31:31;11.40;99.90
25024;DHT22;13033;50.936;5.334;2022-12-26T05:33:57;11.40;99.90
25024;DHT22;13033;50.936;5.334;2022-12-26T05:36:45;11.50;99.90
25024;DHT22;13033;50.936;5.334;2022-12-26T05:39:12;11.50;99.90
25024;DHT22;13033;50.936;5.334;2022-12-26T05:41:38;11.30;99.90
25024;DHT22;13033;50.936;5.334;2022-12-26T05:44:05;11.30;99.90
25024;DHT22;13033;50.936;5.334;2022-12-26T05:46:31;11.30;99.90
25024;DHT22;13033;50.936;5.334;2022-12-26T05:48:56;11.40;99.90
25024;DHT22;13033;50.936;5.334;2022-12-26T05:51:22;11.30;99.90
25024;DHT22;13033;50.936;5.334;2022-12-26T05:53:48;11.20;99.90
25024;DHT22;13033;50.936;5.334;2022-12-26T05:56:15;11.30;99.90
25024;DHT22;13033;50.936;5.334;2022-12-26T05:58:41;11.20;99.90
25024;DHT22;13033;50.936;5.334;2022-12-26T06:01:13;11.30;99.90
25024;DHT22;13033;50.936;5.334;2022-12-26T06:03:39;11.30;99.90
25024;DHT22;13033;50.936;5.334;2022-12-26T06:06:08;11.30;99.90
25024;DHT22;13033;50.936;5.334;2022-12-26T06:08:35;11.30;99.90
25024;DHT22;13033;50.936;5.334;2022-12-26T06:11:06;11.20;99.90
25024;DHT22;13033;50.936;5.334;2022-12-26T06:13:32;11.20;99.90
25024;DHT22;13033;50.936;5.334;2022-12-26T06:15:58;11.10;99.90
25024;DHT22;13033;50.936;5.334;2022-12-26T06:18:24;11.10;99.90
25024;DHT22;13033;50.936;5.334;2022-12-26T06:20:50;11.20;99.90
25024;DHT22;13033;50.936;5.334;2022-12-26T06:23:15;11.20;99.90
25024;DHT22;13033;50.936;5.334;2022-12-26T06:25:41;11.10;99.90
25024;DHT22;13033;50.936;5.334;2022-12-26T06:28:07;11.20;99.90
25024;DHT22;13033;50.936;5.334;2022-12-26T06:30:32;11.20;99.90
25024;DHT22;13033;50.936;5.334;2022-12-26T06:32:58;11.20;99.90
25024;DHT22;13033;50.936;5.334;2022-12-26T06:35:24;11.10;99.90
25024;DHT22;13033;50.936;5.334;2022-12-26T06:37:49;11.00;99.90
25024;DHT22;13033;50.936;5.334;2022-12-26T06:40:15;11.10;99.90
25024;DHT22;13033;50.936;5.334;2022-12-26T06:42:41;11.10;99.90
25024;DHT22;13033;50.936;5.334;2022-12-26T06:45:07;11.10;99.90
25024;DHT22;13033;50.936;5.334;2022-12-26T06:47:32;11.00;99.90
25024;DHT22;13033;50.936;5.334;2022-12-26T06:49:58;11.10;99.90
25024;DHT22;13033;50.936;5.334;2022-12-26T06:52:24;11.00;99.90
25024;DHT22;13033;50.936;5.334;2022-12-26T06:54:49;11.00;99.90
25024;DHT22;13033;50.936;5.334;2022-12-26T06:57:15;11.10;99.90
25024;DHT22;13033;50.936;5.334;2022-12-26T06:59:40;11.00;99.90
25024;DHT22;13033;50.936;5.334;2022-12-26T07:02:09;10.90;99.90
25024;DHT22;13033;50.936;5.334;2022-12-26T07:04:35;11.00;99.90
25024;DHT22;13033;50.936;5.334;2022-12-26T07:07:00;10.90;99.90
25024;DHT22;13033;50.936;5.334;2022-12-26T07:09:26;10.90;99.90
25024;DHT22;13033;50.936;5.334;2022-12-26T07:11:51;11.00;99.90
25024;DHT22;13033;50.936;5.334;2022-12-26T07:14:17;11.10;99.90
25024;DHT22;13033;50.936;5.334;2022-12-26T07:16:44;11.20;99.90
25024;DHT22;13033;50.936;5.334;2022-12-26T07:19:11;11.20;99.90
25024;DHT22;13033;50.936;5.334;2022-12-26T07:21:38;11.20;99.90
25024;DHT22;13033;50.936;5.334;2022-12-26T07:24:04;11.20;99.90
25024;DHT22;13033;50.936;5.334;2022-12-26T07:26:30;11.00;99.90
25024;DHT22;13033;50.936;5.334;2022-12-26T07:28:56;11.00;99.90
25024;DHT22;13033;50.936;5.334;2022-12-26T07:31:24;10.90;99.90
25024;DHT22;13033;50.936;5.334;2022-12-26T07:33:51;11.00;99.90
25024;DHT22;13033;50.936;5.334;2022-12-26T07:36:18;10.90;99.90
25024;DHT22;13033;50.936;5.334;2022-12-26T07:38:44;11.00;99.90
25024;DHT22;13033;50.936;5.334;2022-12-26T07:41:10;10.90;99.90
25024;DHT22;13033;50.936;5.334;2022-12-26T07:43:54;11.00;99.90
25024;DHT22;13033;50.936;5.334;2022-12-26T07:46:20;11.10;99.90
25024;DHT22;13033;50.936;5.334;2022-12-26T07:48:45;11.00;99.90
25024;DHT22;13033;50.936;5.334;2022-12-26T07:51:11;11.20;99.90
25024;DHT22;13033;50.936;5.334;2022-12-26T07:53:37;11.30;99.90
25024;DHT22;13033;50.936;5.334;2022-12-26T07:56:03;11.30;99.90
25024;DHT22;13033;50.936;5.334;2022-12-26T07:58:28;11.50;99.90
25024;DHT22;13033;50.936;5.334;2022-12-26T08:00:54;11.30;99.90
25024;DHT22;13033;50.936;5.334;2022-12-26T08:03:20;11.30;99.90
25024;DHT22;13033;50.936;5.334;2022-12-26T08:05:49;11.30;99.90
25024;DHT22;13033;50.936;5.334;2022-12-26T08:08:15;11.40;99.90
25024;DHT22;13033;50.936;5.334;2022-12-26T08:10:41;11.40;99.90
25024;DHT22;13033;50.936;5.334;2022-12-26T08:13:07;11.40;99.90
25024;DHT22;13033;50.936;5.334;2022-12-26T08:15:32;11.50;99.90
25024;DHT22;13033;50.936;5.334;2022-12-26T08:17:58;11.60;99.90
25024;DHT22;13033;50.936;5.334;2022-12-26T08:20:24;11.70;99.90
25024;DHT22;13033;50.936;5.334;2022-12-26T08:22:49;11.60;99.90
25024;DHT22;13033;50.936;5.334;2022-12-26T08:25:15;11.40;99.90
25024;DHT22;13033;50.936;5.334;2022-12-26T08:27:41;11.50;99.90
25024;DHT22;13033;50.936;5.334;2022-12-26T08:30:07;11.40;99.90
25024;DHT22;13033;50.936;5.334;2022-12-26T08:32:33;11.40;99.90
25024;DHT22;13033;50.936;5.334;2022-12-26T08:34:58;11.40;99.90
25024;DHT22;13033;50.936;5.334;2022-12-26T08:37:24;11.40;99.90
25024;DHT22;13033;50.936;5.334;2022-12-26T08:39:50;11.40;99.90
25024;DHT22;13033;50.936;5.334;2022-12-26T08:42:20;11.50;99.90
25024;DHT22;13033;50.936;5.334;2022-12-26T08:44:46;11.40;99.90
25024;DHT22;13033;50.936;5.334;2022-12-26T08:47:12;11.40;99.90
25024;DHT22;13033;50.936;5.334;2022-12-26T08:49:38;11.50;99.90
25024;DHT22;13033;50.936;5.334;2022-12-26T08:52:04;11.40;99.90
25024;DHT22;13033;50.936;5.334;2022-12-26T08:54:30;11.50;99.90
25024;DHT22;13033;50.936;5.334;2022-12-26T08:56:56;11.50;99.90
25024;DHT22;13033;50.936;5.334;2022-12-26T08:59:22;11.50;99.90
25024;DHT22;13033;50.936;5.334;2022-12-26T09:01:47;11.60;99.90
25024;DHT22;13033;50.936;5.334;2022-12-26T09:04:13;11.50;99.90
25024;DHT22;13033;50.936;5.334;2022-12-26T09:06:39;11.50;99.90
25024;DHT22;13033;50.936;5.334;2022-12-26T09:09:06;11.50;99.90
25024;DHT22;13033;50.936;5.334;2022-12-26T09:11:33;11.60;99.90
25024;DHT22;13033;50.936;5.334;2022-12-26T09:14:01;11.70;99.90
25024;DHT22;13033;50.936;5.334;2022-12-26T09:16:32;11.70;99.90
25024;DHT22;13033;50.936;5.334;2022-12-26T09:19:02;11.70;99.90
25024;DHT22;13033;50.936;5.334;2022-12-26T09:21:29;11.70;99.90
25024;DHT22;13033;50.936;5.334;2022-12-26T09:24:03;11.70;99.90
25024;DHT22;13033;50.936;5.334;2022-12-26T09:26:29;11.70;99.90
25024;DHT22;13033;50.936;5.334;2022-12-26T09:28:56;11.80;99.90
25024;DHT22;13033;50.936;5.334;2022-12-26T09:31:24;11.90;99.90
25024;DHT22;13033;50.936;5.334;2022-12-26T09:33:50;12.00;99.90
25024;DHT22;13033;50.936;5.334;2022-12-26T09:36:20;12.10;99.90
25024;DHT22;13033;50.936;5.334;2022-12-26T09:38:47;12.20;99.90
25024;DHT22;13033;50.936;5.334;2022-12-26T09:49:18;12.10;99.90
25024;DHT22;13033;50.936;5.334;2022-12-26T09:51:49;12.10;99.90
25024;DHT22;13033;50.936;5.334;2022-12-26T09:57:14;12.20;99.90
25024;DHT22;13033;50.936;5.334;2022-12-26T10:00:00;12.30;99.90
25024;DHT22;13033;50.936;5.334;2022-12-26T10:02:26;12.30;99.90
25024;DHT22;13033;50.936;5.334;2022-12-26T10:04:53;12.40;99.90
25024;DHT22;13033;50.936;5.334;2022-12-26T10:10:25;12.30;99.90
25024;DHT22;13033;50.936;5.334;2022-12-26T10:13:11;12.20;99.90
25024;DHT22;13033;50.936;5.334;2022-12-26T10:15:49;12.30;99.90
25024;DHT22;13033;50.936;5.334;2022-12-26T10:21:30;12.70;99.90
25024;DHT22;13033;50.936;5.334;2022-12-26T10:24:11;13.00;99.90
25024;DHT22;13033;50.936;5.334;2022-12-26T10:26:42;13.00;99.90
25024;DHT22;13033;50.936;5.334;2022-12-26T10:29:29;12.90;99.90
25024;DHT22;13033;50.936;5.334;2022-12-26T10:32:00;12.70;99.90
25024;DHT22;13033;50.936;5.334;2022-12-26T10:34:40;12.50;99.90
25024;DHT22;13033;50.936;5.334;2022-12-26T10:39:58;12.50;99.90
25024;DHT22;13033;50.936;5.334;2022-12-26T10:42:43;12.50;99.90
25024;DHT22;13033;50.936;5.334;2022-12-26T10:45:19;12.50;99.90
25024;DHT22;13033;50.936;5.334;2022-12-26T10:47:49;12.50;99.90
25024;DHT22;13033;50.936;5.334;2022-12-26T10:50:21;12.50;99.90
25024;DHT22;13033;50.936;5.334;2022-12-26T10:52:47;12.50;99.90
25024;DHT22;13033;50.936;5.334;2022-12-26T10:55:16;12.60;99.90
25024;DHT22;13033;50.936;5.334;2022-12-26T10:57:44;12.40;99.90
25024;DHT22;13033;50.936;5.334;2022-12-26T11:00:29;12.20;99.90
25024;DHT22;13033;50.936;5.334;2022-12-26T11:05:27;11.90;99.90
25024;DHT22;13033;50.936;5.334;2022-12-26T11:08:06;11.80;99.90
25024;DHT22;13033;50.936;5.334;2022-12-26T11:10:32;11.70;99.90
25024;DHT22;13033;50.936;5.334;2022-12-26T11:13:05;11.70;99.90
25024;DHT22;13033;50.936;5.334;2022-12-26T11:15:36;11.70;99.90
25024;DHT22;13033;50.936;5.334;2022-12-26T11:18:14;11.70;99.90
25024;DHT22;13033;50.936;5.334;2022-12-26T11:20:42;11.80;99.90
25024;DHT22;13033;50.936;5.334;2022-12-26T11:23:29;11.70;99.90
25024;DHT22;13033;50.936;5.334;2022-12-26T11:25:59;11.70;99.90
25024;DHT22;13033;50.936;5.334;2022-12-26T11:28:30;11.60;99.90
25024;DHT22;13033;50.936;5.334;2022-12-26T11:30:59;11.50;99.90
25024;DHT22;13033;50.936;5.334;2022-12-26T11:33:31;11.50;99.90
25024;DHT22;13033;50.936;5.334;2022-12-26T11:38:46;10.90;99.90
25024;DHT22;13033;50.936;5.334;2022-12-26T11:41:33;10.70;99.90
25024;DHT22;13033;50.936;5.334;2022-12-26T11:46:37;10.40;99.90
25024;DHT22;13033;50.936;5.334;2022-12-26T11:49:03;10.50;99.90
25024;DHT22;13033;50.936;5.334;2022-12-26T11:51:35;10.60;99.90
25024;DHT22;13033;50.936;5.334;2022-12-26T11:56:43;10.80;99.90
25024;DHT22;13033;50.936;5.334;2022-12-26T11:59:21;10.80;99.90
25024;DHT22;13033;50.936;5.334;2022-12-26T12:02:11;10.90;99.90
25024;DHT22;13033;50.936;5.334;2022-12-26T12:04:34;10.90;99.90
25024;DHT22;13033;50.936;5.334;2022-12-26T12:07:50;10.80;99.90
25024;DHT22;13033;50.936;5.334;2022-12-26T12:10:38;10.80;99.90
25024;DHT22;13033;50.936;5.334;2022-12-26T12:19:03;10.70;99.90
25024;DHT22;13033;50.936;5.334;2022-12-26T12:38:29;10.20;99.90
25024;DHT22;13033;50.936;5.334;2022-12-26T12:44:03;10.20;99.90
25024;DHT22;13033;50.936;5.334;2022-12-26T12:52:16;10.10;99.90
25024;DHT22;13033;50.936;5.334;2022-12-26T13:00:15;9.70;99.90
25024;DHT22;13033;50.936;5.334;2022-12-26T13:03:01;9.60;99.90
25024;DHT22;13033;50.936;5.334;2022-12-26T13:05:51;9.60;99.90
25024;DHT22;13033;50.936;5.334;2022-12-26T13:08:31;9.60;99.90
25024;DHT22;13033;50.936;5.334;2022-12-26T13:11:15;9.70;99.90
25024;DHT22;13033;50.936;5.334;2022-12-26T13:13:44;9.80;99.90
25024;DHT22;13033;50.936;5.334;2022-12-26T13:16:25;9.80;99.90
25024;DHT22;13033;50.936;5.334;2022-12-26T13:18:58;9.80;99.90
25024;DHT22;13033;50.936;5.334;2022-12-26T13:21:25;9.80;99.90
25024;DHT22;13033;50.936;5.334;2022-12-26T13:24:05;9.80;99.90
25024;DHT22;13033;50.936;5.334;2022-12-26T13:31:54;9.70;99.90
25024;DHT22;13033;50.936;5.334;2022-12-26T13:34:22;9.70;99.90
25024;DHT22;13033;50.936;5.334;2022-12-26T13:36:50;9.80;99.90
25024;DHT22;13033;50.936;5.334;2022-12-26T13:39:28;9.70;99.90
25024;DHT22;13033;50.936;5.334;2022-12-26T13:44:50;9.60;99.90
25024;DHT22;13033;50.936;5.334;2022-12-26T13:47:34;9.50;99.90
25024;DHT22;13033;50.936;5.334;2022-12-26T13:53:06;9.60;99.90
25024;DHT22;13033;50.936;5.334;2022-12-26T13:58:53;9.70;99.90
25024;DHT22;13033;50.936;5.334;2022-12-26T14:01:47;9.70;99.90
25024;DHT22;13033;50.936;5.334;2022-12-26T14:07:43;9.60;99.90
25024;DHT22;13033;50.936;5.334;2022-12-26T14:10:37;9.60;99.90
25024;DHT22;13033;50.936;5.334;2022-12-26T14:27:34;9.50;99.90
25024;DHT22;13033;50.936;5.334;2022-12-26T14:33:04;9.60;99.90
25024;DHT22;13033;50.936;5.334;2022-12-26T14:35:45;9.40;99.90
25024;DHT22;13033;50.936;5.334;2022-12-26T14:41:20;9.20;99.90
25024;DHT22;13033;50.936;5.334;2022-12-26T14:44:39;9.00;99.90
25024;DHT22;13033;50.936;5.334;2022-12-26T14:47:03;8.90;99.90
25024;DHT22;13033;50.936;5.334;2022-12-26T14:54:50;8.90;99.90
25024;DHT22;13033;50.936;5.334;2022-12-26T14:57:46;8.90;99.90
25024;DHT22;13033;50.936;5.334;2022-12-26T15:05:27;8.80;99.90
25024;DHT22;13033;50.936;5.334;2022-12-26T15:08:30;8.80;99.90
25024;DHT22;13033;50.936;5.334;2022-12-26T15:33:41;8.00;99.90
25024;DHT22;13033;50.936;5.334;2022-12-26T15:38:42;7.90;99.90
25024;DHT22;13033;50.936;5.334;2022-12-26T15:46:34;7.70;99.90
25024;DHT22;13033;50.936;5.334;2022-12-26T15:49:19;7.70;99.90
25024;DHT22;13033;50.936;5.334;2022-12-26T15:52:08;7.60;99.90
25024;DHT22;13033;50.936;5.334;2022-12-26T16:00:19;7.60;99.90
25024;DHT22;13033;50.936;5.334;2022-12-26T16:02:55;7.50;99.90
25024;DHT22;13033;50.936;5.334;2022-12-26T16:16:49;7.10;99.90
25024;DHT22;13033;50.936;5.334;2022-12-26T16:19:21;7.10;99.90
25024;DHT22;13033;50.936;5.334;2022-12-26T16:22:00;7.00;99.90
25024;DHT22;13033;50.936;5.334;2022-12-26T16:24:46;7.10;99.90
25024;DHT22;13033;50.936;5.334;2022-12-26T16:27:17;7.00;99.90
25024;DHT22;13033;50.936;5.334;2022-12-26T16:29:46;6.90;99.90
25024;DHT22;13033;50.936;5.334;2022-12-26T16:32:19;6.80;99.90
25024;DHT22;13033;50.936;5.334;2022-12-26T16:34:46;6.90;99.90
25024;DHT22;13033;50.936;5.334;2022-12-26T16:37:21;7.00;99.90
25024;DHT22;13033;50.936;5.334;2022-12-26T16:40:27;7.00;99.90
25024;DHT22;13033;50.936;5.334;2022-12-26T16:43:05;7.00;99.90
25024;DHT22;13033;50.936;5.334;2022-12-26T16:45:36;7.00;99.90
25024;DHT22;13033;50.936;5.334;2022-12-26T16:48:07;7.00;99.90
25024;DHT22;13033;50.936;5.334;2022-12-26T16:50:36;7.00;99.90
25024;DHT22;13033;50.936;5.334;2022-12-26T16:53:20;6.70;99.90
25024;DHT22;13033;50.936;5.334;2022-12-26T17:00:46;6.50;99.90
25024;DHT22;13033;50.936;5.334;2022-12-26T17:03:25;6.50;99.90
25024;DHT22;13033;50.936;5.334;2022-12-26T17:05:52;6.50;99.90
25024;DHT22;13033;50.936;5.334;2022-12-26T17:08:18;6.40;99.90
25024;DHT22;13033;50.936;5.334;2022-12-26T17:10:48;6.30;99.90
25024;DHT22;13033;50.936;5.334;2022-12-26T17:13:19;6.30;99.90
25024;DHT22;13033;50.936;5.334;2022-12-26T17:15:56;6.30;99.90
25024;DHT22;13033;50.936;5.334;2022-12-26T17:18:41;6.30;99.90
25024;DHT22;13033;50.936;5.334;2022-12-26T17:21:30;6.20;99.90
25024;DHT22;13033;50.936;5.334;2022-12-26T17:26:28;6.20;99.90
25024;DHT22;13033;50.936;5.334;2022-12-26T17:28:55;6.20;99.90
25024;DHT22;13033;50.936;5.334;2022-12-26T17:31:30;6.00;99.90
25024;DHT22;13033;50.936;5.334;2022-12-26T17:33:57;5.90;99.90
25024;DHT22;13033;50.936;5.334;2022-12-26T17:36:26;5.80;99.90
25024;DHT22;13033;50.936;5.334;2022-12-26T17:38:52;5.80;99.90
25024;DHT22;13033;50.936;5.334;2022-12-26T17:41:18;5.70;99.90
25024;DHT22;13033;50.936;5.334;2022-12-26T17:43:45;5.70;99.90
25024;DHT22;13033;50.936;5.334;2022-12-26T17:46:13;5.80;99.90
25024;DHT22;13033;50.936;5.334;2022-12-26T17:48:40;5.80;99.90
25024;DHT22;13033;50.936;5.334;2022-12-26T17:51:09;5.70;99.90
25024;DHT22;13033;50.936;5.334;2022-12-26T17:53:40;5.90;99.90
25024;DHT22;13033;50.936;5.334;2022-12-26T17:56:24;6.00;99.90
25024;DHT22;13033;50.936;5.334;2022-12-26T17:58:51;5.90;99.90
25024;DHT22;13033;50.936;5.334;2022-12-26T18:01:17;5.80;99.90
25024;DHT22;13033;50.936;5.334;2022-12-26T18:03:43;5.80;99.90
25024;DHT22;13033;50.936;5.334;2022-12-26T18:06:13;5.90;99.90
25024;DHT22;13033;50.936;5.334;2022-12-26T18:08:40;5.90;99.90
25024;DHT22;13033;50.936;5.334;2022-12-26T18:11:09;5.90;99.90
25024;DHT22;13033;50.936;5.334;2022-12-26T18:13:36;5.90;99.90
25024;DHT22;13033;50.936;5.334;2022-12-26T18:16:04;5.70;99.90
25024;DHT22;13033;50.936;5.334;2022-12-26T18:18:35;5.70;99.90
25024;DHT22;13033;50.936;5.334;2022-12-26T18:21:03;5.70;99.90
25024;DHT22;13033;50.936;5.334;2022-12-26T18:23:29;5.60;99.90
25024;DHT22;13033;50.936;5.334;2022-12-26T18:25:58;5.70;99.90
25024;DHT22;13033;50.936;5.334;2022-12-26T18:28:24;5.70;99.90
25024;DHT22;13033;50.936;5.334;2022-12-26T18:30:50;5.70;99.90
25024;DHT22;13033;50.936;5.334;2022-12-26T18:33:15;5.70;99.90
25024;DHT22;13033;50.936;5.334;2022-12-26T18:35:42;5.60;99.90
25024;DHT22;13033;50.936;5.334;2022-12-26T18:38:15;5.60;99.90
25024;DHT22;13033;50.936;5.334;2022-12-26T18:40:45;5.60;99.90
25024;DHT22;13033;50.936;5.334;2022-12-26T18:43:12;5.70;99.90
25024;DHT22;13033;50.936;5.334;2022-12-26T18:45:38;5.70;99.90
25024;DHT22;13033;50.936;5.334;2022-12-26T18:48:06;5.80;99.90
25024;DHT22;13033;50.936;5.334;2022-12-26T18:50:33;5.70;99.90
25024;DHT22;13033;50.936;5.334;2022-12-26T18:52:59;5.40;99.90
25024;DHT22;13033;50.936;5.334;2022-12-26T18:55:26;5.50;99.90
25024;DHT22;13033;50.936;5.334;2022-12-26T18:57:53;5.50;99.90
25024;DHT22;13033;50.936;5.334;2022-12-26T19:00:20;5.60;99.90
25024;DHT22;13033;50.936;5.334;2022-12-26T19:02:47;5.70;99.90
25024;DHT22;13033;50.936;5.334;2022-12-26T19:05:24;5.80;99.90
25024;DHT22;13033;50.936;5.334;2022-12-26T19:07:51;5.70;99.90
25024;DHT22;13033;50.936;5.334;2022-12-26T19:10:18;5.60;99.90
25024;DHT22;13033;50.936;5.334;2022-12-26T19:12:44;5.60;99.90
25024;DHT22;13033;50.936;5.334;2022-12-26T19:15:11;5.60;99.90
25024;DHT22;13033;50.936;5.334;2022-12-26T19:17:37;5.70;99.90
25024;DHT22;13033;50.936;5.334;2022-12-26T19:20:05;5.60;99.90
25024;DHT22;13033;50.936;5.334;2022-12-26T19:22:31;5.60;99.90
25024;DHT22;13033;50.936;5.334;2022-12-26T19:24:57;5.70;99.90
25024;DHT22;13033;50.936;5.334;2022-12-26T19:27:22;5.80;99.90
25024;DHT22;13033;50.936;5.334;2022-12-26T19:29:48;5.70;99.90
25024;DHT22;13033;50.936;5.334;2022-12-26T19:32:14;5.80;99.90
25024;DHT22;13033;50.936;5.334;2022-12-26T19:34:39;5.90;99.90
25024;DHT22;13033;50.936;5.334;2022-12-26T19:37:05;5.90;99.90